Terminal Aerodrome Forecast
Issued by NWS Binghamton, NY

Home | Current Version | Previous Version | Text Only | Print | Product List | Glossary On
Versions: 1 2 3 4 5 6 7 8 9 10 11 12 13 14 15 16 17 18 19 20 21 22
000
FTUS41 KBGM 200541
TAFBGM
TAF
KBGM 200541Z 2006/2106 28005KT 3/4SM BR VV002
      TEMPO 2006/2010 4SM BR SCT005
     FM201000 VRB03KT 3SM BR SCT050
      TEMPO 2010/2013 1SM BR BKN004
     FM201400 30010KT P6SM SCT050
     FM210100 22003KT P6SM SKC=

USA.gov is the U.S. government's official web portal to all federal, state and local government web resources and services.